Terminal Aerodrome Forecast
Issued by NWS Cleveland, OH

Home | Current Version | Previous Version | Graphics & Text | Print | Product List | Glossary On
Versions: 1 2 3 4 5 6 7 8 9 10 11 12 13 14 15 16 17 18 19 20
000
FTUS41 KCLE 040540
TAFTOL
TAF
KTOL 040540Z 0406/0506 VRB05KT 6SM BR VCSH BKN005 OVC050
      TEMPO 0406/0407 4SM -TSRA BR SCT005 BKN035CB
     FM040700 VRB04KT 5SM BR BKN005
      TEMPO 0409/0413 2SM BR BKN003
     FM041400 22005KT P6SM SCT025 BKN250
     FM041700 23006KT P6SM VCTS BKN045CB
     FM042300 08003KT P6SM SCT045 BKN200=

USA.gov is the U.S. government's official web portal to all federal, state and local government web resources and services.